sensor_id;sensor_type;location;lat;lon;timestamp;pressure;altitude;pressure_sealevel;temperature;humidity
20077;BME280;12348;42.710;23.378;2023-03-18T00:02:02;95576.31;;;-0.95;100.00
20077;BME280;12348;42.710;23.378;2023-03-18T00:04:29;95585.69;;;-1.06;100.00
20077;BME280;12348;42.710;23.378;2023-03-18T00:06:56;95582.44;;;-1.15;100.00
20077;BME280;12348;42.710;23.378;2023-03-18T00:09:24;95573.72;;;-1.22;100.00
20077;BME280;12348;42.710;23.378;2023-03-18T00:11:51;95578.00;;;-1.34;100.00
20077;BME280;12348;42.710;23.378;2023-03-18T00:14:21;95570.25;;;-1.42;100.00
20077;BME280;12348;42.710;23.378;2023-03-18T00:16:48;95569.25;;;-1.35;100.00
20077;BME280;12348;42.710;23.378;2023-03-18T00:19:15;95573.91;;;-1.17;100.00
20077;BME280;12348;42.710;23.378;2023-03-18T00:21:43;95562.03;;;-0.75;100.00
20077;BME280;12348;42.710;23.378;2023-03-18T00:24:10;95566.31;;;-0.74;100.00
20077;BME280;12348;42.710;23.378;2023-03-18T00:26:38;95564.06;;;-0.77;100.00
20077;BME280;12348;42.710;23.378;2023-03-18T00:29:06;95562.13;;;-1.08;100.00
20077;BME280;12348;42.710;23.378;2023-03-18T00:31:33;95556.44;;;-1.25;100.00
20077;BME280;12348;42.710;23.378;2023-03-18T00:34:00;95556.44;;;-1.25;100.00
20077;BME280;12348;42.710;23.378;2023-03-18T00:36:26;95543.03;;;-1.36;100.00
20077;BME280;12348;42.710;23.378;2023-03-18T00:38:55;95540.22;;;-1.48;100.00
20077;BME280;12348;42.710;23.378;2023-03-18T00:41:23;95539.81;;;-1.52;100.00
20077;BME280;12348;42.710;23.378;2023-03-18T00:43:52;95544.47;;;-1.54;100.00
20077;BME280;12348;42.710;23.378;2023-03-18T00:46:21;95539.63;;;-1.57;100.00
20077;BME280;12348;42.710;23.378;2023-03-18T00:48:49;95535.13;;;-1.30;100.00
20077;BME280;12348;42.710;23.378;2023-03-18T00:51:17;95531.28;;;-1.60;100.00
20077;BME280;12348;42.710;23.378;2023-03-18T00:53:46;95530.03;;;-1.64;100.00
20077;BME280;12348;42.710;23.378;2023-03-18T00:56:14;95520.72;;;-1.67;100.00
20077;BME280;12348;42.710;23.378;2023-03-18T00:58:42;95519.09;;;-1.75;100.00
20077;BME280;12348;42.710;23.378;2023-03-18T01:01:12;95521.94;;;-1.83;100.00
20077;BME280;12348;42.710;23.378;2023-03-18T01:03:40;95518.28;;;-1.82;100.00
20077;BME280;12348;42.710;23.378;2023-03-18T01:06:08;95520.31;;;-1.57;100.00
20077;BME280;12348;42.710;23.378;2023-03-18T01:08:36;95522.75;;;-1.56;100.00
20077;BME280;12348;42.710;23.378;2023-03-18T01:11:03;95519.91;;;-1.67;100.00
20077;BME280;12348;42.710;23.378;2023-03-18T01:13:31;95518.09;;;-1.74;100.00
20077;BME280;12348;42.710;23.378;2023-03-18T01:15:59;95520.31;;;-1.64;100.00
20077;BME280;12348;42.710;23.378;2023-03-18T01:18:28;95513.22;;;-1.70;100.00
20077;BME280;12348;42.710;23.378;2023-03-18T01:20:56;95515.03;;;-1.77;100.00
20077;BME280;12348;42.710;23.378;2023-03-18T01:23:23;95515.44;;;-1.80;100.00
20077;BME280;12348;42.710;23.378;2023-03-18T01:25:51;95508.94;;;-1.91;100.00
20077;BME280;12348;42.710;23.378;2023-03-18T01:28:17;95505.09;;;-2.08;100.00
20077;BME280;12348;42.710;23.378;2023-03-18T01:30:45;95502.03;;;-2.12;100.00
20077;BME280;12348;42.710;23.378;2023-03-18T01:33:12;95509.13;;;-2.19;100.00
20077;BME280;12348;42.710;23.378;2023-03-18T01:35:41;95505.03;;;-2.22;100.00
20077;BME280;12348;42.710;23.378;2023-03-18T01:38:11;95502.81;;;-2.25;100.00
20077;BME280;12348;42.710;23.378;2023-03-18T01:40:38;95506.06;;;-2.23;100.00
20077;BME280;12348;42.710;23.378;2023-03-18T01:43:13;95503.63;;;-2.31;100.00
20077;BME280;12348;42.710;23.378;2023-03-18T01:45:43;95506.66;;;-2.34;100.00
20077;BME280;12348;42.710;23.378;2023-03-18T01:48:13;95506.25;;;-2.31;100.00
20077;BME280;12348;42.710;23.378;2023-03-18T01:50:42;95504.63;;;-2.32;100.00
20077;BME280;12348;42.710;23.378;2023-03-18T01:53:12;95502.84;;;-2.05;100.00
20077;BME280;12348;42.710;23.378;2023-03-18T01:55:41;95502.03;;;-2.05;100.00
20077;BME280;12348;42.710;23.378;2023-03-18T01:58:13;95488.63;;;-2.17;100.00
20077;BME280;12348;42.710;23.378;2023-03-18T02:00:47;95493.06;;;-2.31;100.00
20077;BME280;12348;42.710;23.378;2023-03-18T02:03:16;95487.81;;;-2.31;100.00
20077;BME280;12348;42.710;23.378;2023-03-18T02:05:44;95485.38;;;-2.19;100.00
20077;BME280;12348;42.710;23.378;2023-03-18T02:08:12;95488.22;;;-2.27;100.00
20077;BME280;12348;42.710;23.378;2023-03-18T02:10:39;95491.44;;;-2.32;100.00
20077;BME280;12348;42.710;23.378;2023-03-18T02:13:08;95482.94;;;-2.34;100.00
20077;BME280;12348;42.710;23.378;2023-03-18T02:15:43;95489.00;;;-2.33;100.00
20077;BME280;12348;42.710;23.378;2023-03-18T02:18:15;95484.53;;;-2.39;100.00
20077;BME280;12348;42.710;23.378;2023-03-18T02:21:04;95486.97;;;-2.45;100.00
20077;BME280;12348;42.710;23.378;2023-03-18T02:23:40;95486.53;;;-2.55;100.00
20077;BME280;12348;42.710;23.378;2023-03-18T02:26:16;95493.44;;;-2.47;100.00
20077;BME280;12348;42.710;23.378;2023-03-18T02:28:49;95488.00;;;-2.39;100.00
20077;BME280;12348;42.710;23.378;2023-03-18T02:31:18;95493.03;;;-2.44;100.00
20077;BME280;12348;42.710;23.378;2023-03-18T02:33:45;95488.75;;;-2.52;100.00
20077;BME280;12348;42.710;23.378;2023-03-18T02:36:17;95495.00;;;-2.66;100.00
20077;BME280;12348;42.710;23.378;2023-03-18T02:38:45;95493.59;;;-2.69;100.00
20077;BME280;12348;42.710;23.378;2023-03-18T02:41:17;95492.94;;;-2.77;100.00
20077;BME280;12348;42.710;23.378;2023-03-18T02:43:44;95484.44;;;-2.73;100.00
20077;BME280;12348;42.710;23.378;2023-03-18T02:46:22;95487.47;;;-2.69;100.00
20077;BME280;12348;42.710;23.378;2023-03-18T02:48:53;95487.47;;;-2.69;100.00
20077;BME280;12348;42.710;23.378;2023-03-18T02:51:20;95490.13;;;-2.69;100.00
20077;BME280;12348;42.710;23.378;2023-03-18T02:53:49;95488.91;;;-2.66;100.00
20077;BME280;12348;42.710;23.378;2023-03-18T02:56:16;95492.13;;;-2.78;100.00
20077;BME280;12348;42.710;23.378;2023-03-18T02:58:43;95489.81;;;-2.46;100.00
20077;BME280;12348;42.710;23.378;2023-03-18T03:01:10;95488.31;;;-2.62;100.00
20077;BME280;12348;42.710;23.378;2023-03-18T03:03:38;95490.19;;;-2.49;100.00
20077;BME280;12348;42.710;23.378;2023-03-18T03:06:06;95490.16;;;-2.62;100.00
20077;BME280;12348;42.710;23.378;2023-03-18T03:08:33;95489.97;;;-2.61;100.00
20077;BME280;12348;42.710;23.378;2023-03-18T03:11:00;95489.72;;;-2.66;100.00
20077;BME280;12348;42.710;23.378;2023-03-18T03:13:27;95484.66;;;-2.74;100.00
20077;BME280;12348;42.710;23.378;2023-03-18T03:15:54;95491.34;;;-2.72;100.00
20077;BME280;12348;42.710;23.378;2023-03-18T03:18:21;95485.44;;;-2.74;100.00
20077;BME280;12348;42.710;23.378;2023-03-18T03:20:50;95479.34;;;-2.81;100.00
20077;BME280;12348;42.710;23.378;2023-03-18T03:23:17;95489.28;;;-2.83;100.00
20077;BME280;12348;42.710;23.378;2023-03-18T03:25:44;95494.16;;;-2.80;100.00
20077;BME280;12348;42.710;23.378;2023-03-18T03:28:12;95498.59;;;-2.87;100.00
20077;BME280;12348;42.710;23.378;2023-03-18T03:30:40;95500.81;;;-2.84;100.00
20077;BME280;12348;42.710;23.378;2023-03-18T03:33:08;95510.53;;;-2.91;100.00
20077;BME280;12348;42.710;23.378;2023-03-18T03:35:36;95500.81;;;-2.90;100.00
20077;BME280;12348;42.710;23.378;2023-03-18T03:38:04;95507.69;;;-2.89;100.00
20077;BME280;12348;42.710;23.378;2023-03-18T03:40:31;95505.88;;;-2.89;100.00
20077;BME280;12348;42.710;23.378;2023-03-18T03:42:58;95511.97;;;-2.82;100.00
20077;BME280;12348;42.710;23.378;2023-03-18T03:45:25;95508.72;;;-2.84;100.00
20077;BME280;12348;42.710;23.378;2023-03-18T03:47:52;95511.34;;;-2.90;100.00
20077;BME280;12348;42.710;23.378;2023-03-18T03:50:19;95503.47;;;-2.77;100.00
20077;BME280;12348;42.710;23.378;2023-03-18T03:52:46;95508.53;;;-2.82;100.00
20077;BME280;12348;42.710;23.378;2023-03-18T03:55:17;95509.13;;;-2.80;100.00
20077;BME280;12348;42.710;23.378;2023-03-18T03:57:46;95516.81;;;-2.85;100.00
20077;BME280;12348;42.710;23.378;2023-03-18T04:00:15;95507.06;;;-2.98;100.00
20077;BME280;12348;42.710;23.378;2023-03-18T04:02:44;95507.47;;;-2.88;100.00
20077;BME280;12348;42.710;23.378;2023-03-18T04:05:12;95511.56;;;-2.85;100.00
20077;BME280;12348;42.710;23.378;2023-03-18T04:07:39;95518.06;;;-2.81;100.00
20077;BME280;12348;42.710;23.378;2023-03-18T04:10:07;95508.94;;;-2.79;100.00
20077;BME280;12348;42.710;23.378;2023-03-18T04:12:37;95520.31;;;-2.78;100.00
20077;BME280;12348;42.710;23.378;2023-03-18T04:15:05;95532.84;;;-2.80;100.00
20077;BME280;12348;42.710;23.378;2023-03-18T04:17:32;95530.22;;;-2.80;100.00
20077;BME280;12348;42.710;23.378;2023-03-18T04:20:00;95527.38;;;-2.85;100.00
20077;BME280;12348;42.710;23.378;2023-03-18T04:22:27;95529.56;;;-2.89;100.00
20077;BME280;12348;42.710;23.378;2023-03-18T04:24:55;95537.34;;;-2.74;100.00
20077;BME280;12348;42.710;23.378;2023-03-18T04:27:21;95535.13;;;-2.71;100.00
20077;BME280;12348;42.710;23.378;2023-03-18T04:29:50;95533.88;;;-2.81;100.00
20077;BME280;12348;42.710;23.378;2023-03-18T04:32:16;95540.53;;;-2.85;100.00
20077;BME280;12348;42.710;23.378;2023-03-18T04:34:43;95536.25;;;-2.93;100.00
20077;BME280;12348;42.710;23.378;2023-03-18T04:37:10;95546.00;;;-2.87;100.00
20077;BME280;12348;42.710;23.378;2023-03-18T04:39:39;95541.34;;;-2.85;100.00
20077;BME280;12348;42.710;23.378;2023-03-18T04:42:06;95547.28;;;-2.70;100.00
20077;BME280;12348;42.710;23.378;2023-03-18T04:44:33;95556.31;;;-2.44;100.00
20077;BME280;12348;42.710;23.378;2023-03-18T04:47:01;95556.44;;;-1.91;100.00
20077;BME280;12348;42.710;23.378;2023-03-18T04:49:28;95551.38;;;-1.39;100.00
20077;BME280;12348;42.710;23.378;2023-03-18T04:51:55;95562.53;;;-0.46;100.00
20077;BME280;12348;42.710;23.378;2023-03-18T04:54:22;95545.97;;;0.10;100.00
20077;BME280;12348;42.710;23.378;2023-03-18T04:56:48;95556.81;;;0.59;100.00
20077;BME280;12348;42.710;23.378;2023-03-18T04:59:15;95551.50;;;0.59;100.00
20077;BME280;12348;42.710;23.378;2023-03-18T05:01:42;95552.00;;;0.74;100.00
20077;BME280;12348;42.710;23.378;2023-03-18T05:04:10;95552.75;;;1.25;100.00
20077;BME280;12348;42.710;23.378;2023-03-18T05:06:37;95552.31;;;1.64;100.00
20077;BME280;12348;42.710;23.378;2023-03-18T05:09:04;95551.66;;;2.41;100.00
20077;BME280;12348;42.710;23.378;2023-03-18T05:11:31;95543.41;;;2.84;100.00
20077;BME280;12348;42.710;23.378;2023-03-18T05:13:58;95529.50;;;3.29;100.00
20077;BME280;12348;42.710;23.378;2023-03-18T05:16:25;95530.00;;;4.24;100.00
20077;BME280;12348;42.710;23.378;2023-03-18T05:18:52;95530.03;;;4.57;100.00
20077;BME280;12348;42.710;23.378;2023-03-18T05:21:20;95526.81;;;4.72;100.00
20077;BME280;12348;42.710;23.378;2023-03-18T05:23:48;95525.25;;;5.71;100.00
20077;BME280;12348;42.710;23.378;2023-03-18T05:26:15;95533.09;;;6.80;84.68
20077;BME280;12348;42.710;23.378;2023-03-18T05:28:42;95522.63;;;7.69;77.52
20077;BME280;12348;42.710;23.378;2023-03-18T05:31:09;95537.69;;;7.80;71.88
20077;BME280;12348;42.710;23.378;2023-03-18T05:33:36;95534.53;;;7.88;72.22
20077;BME280;12348;42.710;23.378;2023-03-18T05:36:03;95538.22;;;9.32;70.18
20077;BME280;12348;42.710;23.378;2023-03-18T05:38:31;95539.88;;;11.02;61.30
20077;BME280;12348;42.710;23.378;2023-03-18T05:40:58;95546.47;;;12.45;55.94
20077;BME280;12348;42.710;23.378;2023-03-18T05:43:25;95538.88;;;13.82;51.67
20077;BME280;12348;42.710;23.378;2023-03-18T05:45:53;95547.38;;;14.17;48.19
20077;BME280;12348;42.710;23.378;2023-03-18T05:48:20;95550.94;;;13.57;49.23
20077;BME280;12348;42.710;23.378;2023-03-18T05:50:48;95550.03;;;13.48;49.67
20077;BME280;12348;42.710;23.378;2023-03-18T05:53:15;95547.06;;;13.64;49.56
20077;BME280;12348;42.710;23.378;2023-03-18T05:55:43;95552.09;;;14.25;46.67
20077;BME280;12348;42.710;23.378;2023-03-18T05:58:10;95563.25;;;13.50;46.61
20077;BME280;12348;42.710;23.378;2023-03-18T06:00:37;95552.72;;;13.34;49.19
20077;BME280;12348;42.710;23.378;2023-03-18T06:03:04;95551.03;;;14.76;46.34
20077;BME280;12348;42.710;23.378;2023-03-18T06:05:31;95546.88;;;14.43;46.49
20077;BME280;12348;42.710;23.378;2023-03-18T06:07:58;95559.03;;;13.44;49.20
20077;BME280;12348;42.710;23.378;2023-03-18T06:10:25;95552.44;;;11.99;52.06
20077;BME280;12348;42.710;23.378;2023-03-18T06:12:55;95548.28;;;11.53;54.55
20077;BME280;12348;42.710;23.378;2023-03-18T06:15:23;95549.59;;;10.98;55.82
20077;BME280;12348;42.710;23.378;2023-03-18T06:17:50;95559.66;;;9.73;61.58
20077;BME280;12348;42.710;23.378;2023-03-18T06:20:17;95544.75;;;10.06;62.00
20077;BME280;12348;42.710;23.378;2023-03-18T06:22:44;95552.25;;;11.61;56.63
20077;BME280;12348;42.710;23.378;2023-03-18T06:25:15;95550.97;;;11.87;55.53
20077;BME280;12348;42.710;23.378;2023-03-18T06:27:43;95542.03;;;10.65;56.82
20077;BME280;12348;42.710;23.378;2023-03-18T06:30:14;95540.72;;;10.58;60.03
20077;BME280;12348;42.710;23.378;2023-03-18T06:32:41;95535.56;;;12.88;55.23
20077;BME280;12348;42.710;23.378;2023-03-18T06:35:09;95530.97;;;12.88;53.93
20077;BME280;12348;42.710;23.378;2023-03-18T06:37:36;95525.31;;;14.88;48.78
20077;BME280;12348;42.710;23.378;2023-03-18T06:40:05;95524.69;;;15.36;45.31
20077;BME280;12348;42.710;23.378;2023-03-18T06:42:32;95519.72;;;14.06;48.64
20077;BME280;12348;42.710;23.378;2023-03-18T06:44:59;95528.25;;;16.07;45.27
20077;BME280;12348;42.710;23.378;2023-03-18T06:47:27;95535.69;;;15.84;43.82
20077;BME280;12348;42.710;23.378;2023-03-18T06:49:54;95532.16;;;15.84;43.81
20077;BME280;12348;42.710;23.378;2023-03-18T06:52:21;95526.56;;;16.29;45.78
20077;BME280;12348;42.710;23.378;2023-03-18T06:54:49;95527.31;;;14.82;46.02
20077;BME280;12348;42.710;23.378;2023-03-18T06:57:16;95530.22;;;14.22;47.46
20077;BME280;12348;42.710;23.378;2023-03-18T06:59:42;95529.03;;;12.13;55.02
20077;BME280;12348;42.710;23.378;2023-03-18T07:02:12;95531.53;;;13.83;50.48
20077;BME280;12348;42.710;23.378;2023-03-18T07:04:41;95521.06;;;14.95;47.62
20077;BME280;12348;42.710;23.378;2023-03-18T07:07:09;95526.41;;;15.32;46.08
20077;BME280;12348;42.710;23.378;2023-03-18T07:09:37;95525.16;;;14.93;46.29
20077;BME280;12348;42.710;23.378;2023-03-18T07:12:04;95529.16;;;15.63;45.77
20077;BME280;12348;42.710;23.378;2023-03-18T07:14:32;95538.16;;;16.03;44.91
20077;BME280;12348;42.710;23.378;2023-03-18T07:16:58;95533.00;;;15.39;45.14
20077;BME280;12348;42.710;23.378;2023-03-18T07:19:26;95530.13;;;15.98;44.77
20077;BME280;12348;42.710;23.378;2023-03-18T07:21:55;95527.41;;;15.98;43.88
20077;BME280;12348;42.710;23.378;2023-03-18T07:24:22;95525.84;;;17.24;42.97
20077;BME280;12348;42.710;23.378;2023-03-18T07:26:49;95535.59;;;16.07;44.28
20077;BME280;12348;42.710;23.378;2023-03-18T07:29:17;95524.09;;;17.19;43.27
20077;BME280;12348;42.710;23.378;2023-03-18T07:31:45;95523.53;;;16.39;43.83
20077;BME280;12348;42.710;23.378;2023-03-18T07:34:12;95525.69;;;17.29;42.02
20077;BME280;12348;42.710;23.378;2023-03-18T07:36:42;95521.38;;;17.92;41.52
20077;BME280;12348;42.710;23.378;2023-03-18T07:39:10;95518.69;;;18.22;40.48
20077;BME280;12348;42.710;23.378;2023-03-18T07:41:37;95517.59;;;16.28;42.74
20077;BME280;12348;42.710;23.378;2023-03-18T07:44:05;95518.81;;;16.62;43.89
20077;BME280;12348;42.710;23.378;2023-03-18T07:46:32;95521.41;;;16.18;44.26
20077;BME280;12348;42.710;23.378;2023-03-18T07:48:59;95510.53;;;17.10;43.24
20077;BME280;12348;42.710;23.378;2023-03-18T07:51:26;95514.03;;;14.94;46.16
20077;BME280;12348;42.710;23.378;2023-03-18T07:53:53;95525.84;;;13.71;51.04
20077;BME280;12348;42.710;23.378;2023-03-18T07:56:22;95524.94;;;15.57;47.24
20077;BME280;12348;42.710;23.378;2023-03-18T07:58:49;95521.59;;;16.22;45.78
20077;BME280;12348;42.710;23.378;2023-03-18T08:01:16;95514.69;;;15.22;46.61
20077;BME280;12348;42.710;23.378;2023-03-18T08:03:44;95517.50;;;15.93;46.09
20077;BME280;12348;42.710;23.378;2023-03-18T08:06:11;95516.69;;;15.93;46.06
20077;BME280;12348;42.710;23.378;2023-03-18T08:08:38;95508.34;;;18.36;43.06
20077;BME280;12348;42.710;23.378;2023-03-18T08:11:05;95510.41;;;17.62;42.69
20077;BME280;12348;42.710;23.378;2023-03-18T08:13:35;95518.75;;;17.57;42.92
20077;BME280;12348;42.710;23.378;2023-03-18T08:16:03;95522.16;;;17.45;42.07
20077;BME280;12348;42.710;23.378;2023-03-18T08:18:30;95514.06;;;19.35;41.10
20077;BME280;12348;42.710;23.378;2023-03-18T08:20:57;95520.56;;;20.99;38.40
20077;BME280;12348;42.710;23.378;2023-03-18T08:23:24;95508.75;;;20.46;38.48
20077;BME280;12348;42.710;23.378;2023-03-18T08:25:55;95508.66;;;17.58;42.17
20077;BME280;12348;42.710;23.378;2023-03-18T08:28:26;95508.56;;;17.02;44.16
20077;BME280;12348;42.710;23.378;2023-03-18T08:30:55;95507.50;;;15.49;45.62
20077;BME280;12348;42.710;23.378;2023-03-18T08:33:23;95525.69;;;13.62;49.62
20077;BME280;12348;42.710;23.378;2023-03-18T08:35:50;95518.38;;;14.45;48.29
20077;BME280;12348;42.710;23.378;2023-03-18T08:38:17;95514.34;;;16.09;46.62
20077;BME280;12348;42.710;23.378;2023-03-18T08:40:44;95503.84;;;14.77;45.85
20077;BME280;12348;42.710;23.378;2023-03-18T08:43:11;95518.03;;;15.19;46.92
20077;BME280;12348;42.710;23.378;2023-03-18T08:45:38;95510.75;;;14.34;48.00
20077;BME280;12348;42.710;23.378;2023-03-18T08:48:06;95517.13;;;15.86;45.36
20077;BME280;12348;42.710;23.378;2023-03-18T08:50:33;95512.31;;;15.52;45.07
20077;BME280;12348;42.710;23.378;2023-03-18T08:53:01;95510.63;;;15.96;43.57
20077;BME280;12348;42.710;23.378;2023-03-18T08:55:30;95515.47;;;16.74;42.68
20077;BME280;12348;42.710;23.378;2023-03-18T08:57:57;95511.78;;;16.87;43.15
20077;BME280;12348;42.710;23.378;2023-03-18T09:00:24;95517.25;;;14.46;47.30
20077;BME280;12348;42.710;23.378;2023-03-18T09:02:52;95505.47;;;16.43;44.78
20077;BME280;12348;42.710;23.378;2023-03-18T09:05:20;95518.09;;;15.28;43.88
20077;BME280;12348;42.710;23.378;2023-03-18T09:07:50;95517.91;;;14.79;43.60
20077;BME280;12348;42.710;23.378;2023-03-18T09:10:19;95514.22;;;16.14;42.79
20077;BME280;12348;42.710;23.378;2023-03-18T09:12:46;95513.25;;;18.22;41.21
20077;BME280;12348;42.710;23.378;2023-03-18T09:15:15;95503.28;;;19.18;38.43
20077;BME280;12348;42.710;23.378;2023-03-18T09:17:42;95503.59;;;19.71;38.19
20077;BME280;12348;42.710;23.378;2023-03-18T09:20:12;95511.78;;;20.93;35.14
20077;BME280;12348;42.710;23.378;2023-03-18T09:22:42;95510.81;;;19.54;35.91
20077;BME280;12348;42.710;23.378;2023-03-18T09:25:09;95511.25;;;20.88;34.96
20077;BME280;12348;42.710;23.378;2023-03-18T09:27:36;95513.47;;;20.21;36.11
20077;BME280;12348;42.710;23.378;2023-03-18T09:30:04;95507.28;;;19.54;36.64
20077;BME280;12348;42.710;23.378;2023-03-18T09:32:31;95512.53;;;19.59;36.81
20077;BME280;12348;42.710;23.378;2023-03-18T09:34:58;95507.78;;;20.50;34.94
20077;BME280;12348;42.710;23.378;2023-03-18T09:37:25;95494.22;;;21.35;34.72
20077;BME280;12348;42.710;23.378;2023-03-18T09:39:53;95498.56;;;20.95;35.51
20077;BME280;12348;42.710;23.378;2023-03-18T09:42:41;95502.72;;;20.40;34.68
20077;BME280;12348;42.710;23.378;2023-03-18T09:45:19;95502.31;;;18.51;35.49
20077;BME280;12348;42.710;23.378;2023-03-18T09:48:09;95496.72;;;16.63;38.45
20077;BME280;12348;42.710;23.378;2023-03-18T09:50:41;95500.75;;;14.93;41.65
20077;BME280;12348;42.710;23.378;2023-03-18T09:53:18;95499.91;;;16.65;40.65
20077;BME280;12348;42.710;23.378;2023-03-18T09:55:51;95493.78;;;17.47;39.74
20077;BME280;12348;42.710;23.378;2023-03-18T09:58:23;95495.06;;;18.55;37.24
20077;BME280;12348;42.710;23.378;2023-03-18T10:00:56;95492.66;;;18.83;37.17
20077;BME280;12348;42.710;23.378;2023-03-18T10:03:30;95496.34;;;17.43;38.24
20077;BME280;12348;42.710;23.378;2023-03-18T10:06:01;95499.00;;;16.96;38.72
20077;BME280;12348;42.710;23.378;2023-03-18T10:08:41;95496.22;;;17.95;38.21
20077;BME280;12348;42.710;23.378;2023-03-18T10:11:20;95498.03;;;16.92;38.29
20077;BME280;12348;42.710;23.378;2023-03-18T10:13:55;95505.53;;;15.10;40.91
20077;BME280;12348;42.710;23.378;2023-03-18T10:16:27;95505.47;;;15.55;41.07
20077;BME280;12348;42.710;23.378;2023-03-18T10:18:54;95499.19;;;16.16;40.90
20077;BME280;12348;42.710;23.378;2023-03-18T10:21:31;95496.88;;;17.19;39.80
20077;BME280;12348;42.710;23.378;2023-03-18T10:24:13;95502.84;;;17.04;38.49
20077;BME280;12348;42.710;23.378;2023-03-18T10:26:47;95494.91;;;18.01;36.65
20077;BME280;12348;42.710;23.378;2023-03-18T10:29:34;95488.69;;;17.36;36.99
20077;BME280;12348;42.710;23.378;2023-03-18T10:32:09;95488.38;;;18.53;36.29
20077;BME280;12348;42.710;23.378;2023-03-18T10:34:51;95485.56;;;17.64;37.09
20077;BME280;12348;42.710;23.378;2023-03-18T10:37:30;95482.63;;;16.61;37.93
20077;BME280;12348;42.710;23.378;2023-03-18T10:40:00;95487.22;;;16.17;40.19
20077;BME280;12348;42.710;23.378;2023-03-18T10:42:31;95486.16;;;17.14;36.07
20077;BME280;12348;42.710;23.378;2023-03-18T10:45:06;95475.47;;;16.74;34.41
20077;BME280;12348;42.710;23.378;2023-03-18T10:47:35;95481.78;;;14.93;36.52
20077;BME280;12348;42.710;23.378;2023-03-18T10:50:12;95485.50;;;14.11;35.97
20077;BME280;12348;42.710;23.378;2023-03-18T10:52:47;95478.50;;;14.82;35.96
20077;BME280;12348;42.710;23.378;2023-03-18T10:55:21;95485.91;;;15.66;35.68
20077;BME280;12348;42.710;23.378;2023-03-18T10:57:51;95467.69;;;14.46;39.44
20077;BME280;12348;42.710;23.378;2023-03-18T11:00:26;95478.00;;;13.66;42.41
20077;BME280;12348;42.710;23.378;2023-03-18T11:02:53;95469.59;;;12.37;43.45
20077;BME280;12348;42.710;23.378;2023-03-18T11:05:23;95495.00;;;11.45;46.42
20077;BME280;12348;42.710;23.378;2023-03-18T11:07:58;95492.44;;;12.07;45.74
20077;BME280;12348;42.710;23.378;2023-03-18T11:10:27;95486.94;;;11.93;44.46
20077;BME280;12348;42.710;23.378;2023-03-18T11:12:58;95485.59;;;10.84;45.05
20077;BME280;12348;42.710;23.378;2023-03-18T11:15:26;95481.56;;;11.40;45.54
20077;BME280;12348;42.710;23.378;2023-03-18T11:17:57;95490.38;;;11.99;43.88
20077;BME280;12348;42.710;23.378;2023-03-18T11:20:32;95485.66;;;12.66;42.42
20077;BME280;12348;42.710;23.378;2023-03-18T11:23:14;95459.56;;;13.22;42.28
20077;BME280;12348;42.710;23.378;2023-03-18T11:25:45;95476.28;;;13.10;41.77
20077;BME280;12348;42.710;23.378;2023-03-18T11:28:21;95474.06;;;13.31;40.56
20077;BME280;12348;42.710;23.378;2023-03-18T11:30:54;95471.59;;;13.62;40.28
20077;BME280;12348;42.710;23.378;2023-03-18T11:33:23;95463.38;;;13.21;40.79
20077;BME280;12348;42.710;23.378;2023-03-18T11:35:52;95467.13;;;13.25;41.91
20077;BME280;12348;42.710;23.378;2023-03-18T11:38:21;95468.56;;;13.03;41.74
20077;BME280;12348;42.710;23.378;2023-03-18T11:40:51;95471.47;;;13.53;41.30
20077;BME280;12348;42.710;23.378;2023-03-18T11:43:21;95470.16;;;13.92;40.57
20077;BME280;12348;42.710;23.378;2023-03-18T11:45:52;95456.53;;;14.61;39.30
20077;BME280;12348;42.710;23.378;2023-03-18T11:48:30;95464.28;;;14.40;40.12
20077;BME280;12348;42.710;23.378;2023-03-18T11:51:09;95450.97;;;12.17;40.40
20077;BME280;12348;42.710;23.378;2023-03-18T11:53:58;95479.28;;;11.76;43.00
20077;BME280;12348;42.710;23.378;2023-03-18T11:56:33;95470.13;;;10.66;45.46
20077;BME280;12348;42.710;23.378;2023-03-18T11:59:26;95479.09;;;10.90;46.25
20077;BME280;12348;42.710;23.378;2023-03-18T12:02:08;95464.63;;;11.87;43.82
20077;BME280;12348;42.710;23.378;2023-03-18T12:04:51;95457.22;;;12.69;42.54
20077;BME280;12348;42.710;23.378;2023-03-18T12:07:38;95463.31;;;12.42;43.52
20077;BME280;12348;42.710;23.378;2023-03-18T12:10:14;95473.97;;;12.14;42.90
20077;BME280;12348;42.710;23.378;2023-03-18T12:12:53;95477.50;;;11.91;42.76
20077;BME280;12348;42.710;23.378;2023-03-18T12:15:34;95476.66;;;11.95;43.14
20077;BME280;12348;42.710;23.378;2023-03-18T12:18:15;95475.38;;;11.39;43.81
20077;BME280;12348;42.710;23.378;2023-03-18T12:20:49;95465.56;;;11.25;44.43
20077;BME280;12348;42.710;23.378;2023-03-18T12:23:32;95469.53;;;11.32;44.21
20077;BME280;12348;42.710;23.378;2023-03-18T12:26:06;95463.66;;;11.49;44.79
20077;BME280;12348;42.710;23.378;2023-03-18T12:28:43;95449.44;;;11.44;44.34
20077;BME280;12348;42.710;23.378;2023-03-18T12:31:26;95459.66;;;11.47;45.01
20077;BME280;12348;42.710;23.378;2023-03-18T12:33:55;95451.03;;;11.45;43.72
20077;BME280;12348;42.710;23.378;2023-03-18T12:36:30;95457.09;;;11.79;42.24
20077;BME280;12348;42.710;23.378;2023-03-18T12:42:02;95453.81;;;11.87;41.53
20077;BME280;12348;42.710;23.378;2023-03-18T12:44:49;95462.56;;;11.74;41.75
20077;BME280;12348;42.710;23.378;2023-03-18T12:47:26;95461.28;;;10.89;42.26
20077;BME280;12348;42.710;23.378;2023-03-18T12:49:59;95459.16;;;10.57;43.11
20077;BME280;12348;42.710;23.378;2023-03-18T12:52:31;95454.78;;;11.49;42.97
20077;BME280;12348;42.710;23.378;2023-03-18T12:55:05;95456.44;;;11.93;41.72
20077;BME280;12348;42.710;23.378;2023-03-18T12:57:40;95454.28;;;12.32;41.89
20077;BME280;12348;42.710;23.378;2023-03-18T13:00:17;95442.81;;;12.03;40.78
20077;BME280;12348;42.710;23.378;2023-03-18T13:02:52;95449.94;;;11.46;41.73